Time;durP1;ratioP1;P1;durP2;ratioP2;P2;SDS_P1;SDS_P2;PMS_P1;PMS_P2;Temp;Humidity;BMP_temperature;BMP_pressure;BME280_temperature;BME280_humidity;BME280_pressure;Samples;Min_cycle;Max_cycle;Signal;HPM_P1;HPM_P2
2021/12/27 00:01:55;;;;;;;16.27;11.20;;;7.90;76.80;;;;;;5031565;28;20168;-75
2021/12/27 00:04:20;;;;;;;17.23;10.82;;;7.90;76.80;;;;;;5030498;28;20030;-77
2021/12/27 00:06:46;;;;;;;16.20;11.00;;;8.00;76.90;;;;;;5032599;28;20026;-77
2021/12/27 00:09:11;;;;;;;15.68;10.50;;;7.90;76.90;;;;;;5031064;28;20025;-77
2021/12/27 00:11:37;;;;;;;18.27;9.95;;;7.90;76.90;;;;;;5032494;28;20052;-77
2021/12/27 00:14:03;;;;;;;30.42;11.32;;;7.90;77.00;;;;;;5029887;28;20044;-77
2021/12/27 00:16:28;;;;;;;25.55;12.07;;;7.90;76.90;;;;;;5032462;28;20493;-77
2021/12/27 00:18:54;;;;;;;20.55;11.18;;;7.90;76.90;;;;;;5031162;28;20021;-78
2021/12/27 00:21:19;;;;;;;19.10;10.45;;;7.90;77.10;;;;;;5032083;28;20029;-77
2021/12/27 00:23:45;;;;;;;21.55;11.20;;;7.90;77.10;;;;;;5030516;28;20501;-74
2021/12/27 00:26:11;;;;;;;19.10;11.15;;;7.90;77.20;;;;;;5029856;28;20500;-76
2021/12/27 00:28:36;;;;;;;17.25;11.07;;;7.90;77.20;;;;;;5031239;28;20022;-77
2021/12/27 00:31:03;;;;;;;20.70;11.18;;;7.90;77.10;;;;;;5028950;28;20116;-77
2021/12/27 00:33:29;;;;;;;18.95;11.38;;;7.90;77.20;;;;;;5030926;28;20110;-77
2021/12/27 00:35:55;;;;;;;20.65;11.82;;;7.90;77.30;;;;;;5031000;28;20048;-77
2021/12/27 00:38:21;;;;;;;17.92;11.45;;;7.90;77.30;;;;;;5032343;28;20372;-77
2021/12/27 00:40:46;;;;;;;20.95;11.00;;;7.90;77.30;;;;;;5030970;28;20053;-75
2021/12/27 00:43:12;;;;;;;17.15;11.15;;;7.90;77.40;;;;;;5031232;28;20057;-77
2021/12/27 00:45:38;;;;;;;21.05;12.50;;;8.00;77.40;;;;;;5031950;28;20036;-75
2021/12/27 00:48:04;;;;;;;18.25;11.07;;;7.90;77.50;;;;;;5032292;28;20099;-77
2021/12/27 00:50:30;;;;;;;18.48;11.57;;;7.90;77.40;;;;;;5031953;28;20092;-76
2021/12/27 00:52:55;;;;;;;16.88;11.35;;;7.90;77.50;;;;;;5032328;28;20026;-75
2021/12/27 00:55:21;;;;;;;18.35;11.25;;;7.90;77.40;;;;;;5030872;28;20124;-77
2021/12/27 00:57:47;;;;;;;17.63;10.95;;;7.90;77.50;;;;;;5030801;28;20021;-75
2021/12/27 01:00:17;;;;;;;17.17;11.65;;;7.90;77.50;;;;;;5030649;28;20037;-77
2021/12/27 01:02:43;;;;;;;17.58;11.50;;;7.90;78.10;;;;;;5031061;28;20025;-77
2021/12/27 01:05:09;;;;;;;17.85;11.23;;;7.90;77.50;;;;;;5030895;28;20176;-76
2021/12/27 01:07:35;;;;;;;19.00;11.48;;;7.90;77.50;;;;;;5030930;28;20026;-77
2021/12/27 01:10:20;;;;;;;17.33;11.27;;;7.90;77.50;;;;;;5030502;28;20144;-77
2021/12/27 01:13:17;;;;;;;18.60;12.13;;;7.90;77.40;;;;;;5030585;28;20108;-76
2021/12/27 01:15:49;;;;;;;20.35;11.77;;;7.90;77.50;;;;;;5030640;28;20025;-77
2021/12/27 01:18:16;;;;;;;16.77;11.68;;;7.90;77.50;;;;;;5032044;28;20013;-77
2021/12/27 01:20:42;;;;;;;17.38;11.52;;;7.90;77.50;;;;;;5031624;28;20045;-75
2021/12/27 01:23:09;;;;;;;18.30;11.32;;;7.90;77.50;;;;;;5032030;28;20032;-77
2021/12/27 01:25:35;;;;;;;16.40;10.98;;;7.90;77.50;;;;;;5030142;28;20079;-77
2021/12/27 01:28:01;;;;;;;16.60;11.65;;;7.90;77.60;;;;;;5032102;28;20037;-77
2021/12/27 01:30:28;;;;;;;17.55;11.40;;;7.90;77.70;;;;;;5031786;28;20021;-75
2021/12/27 01:32:58;;;;;;;16.17;10.98;;;7.90;77.70;;;;;;5030865;28;20079;-75
2021/12/27 01:35:24;;;;;;;17.42;11.75;;;7.90;77.70;;;;;;5030969;28;20025;-76
2021/12/27 01:37:51;;;;;;;17.55;11.75;;;7.90;77.80;;;;;;5034747;28;20438;-77
2021/12/27 01:40:18;;;;;;;17.63;11.68;;;7.90;77.90;;;;;;5034409;28;20575;-75
2021/12/27 01:43:07;;;;;;;19.17;11.48;;;7.90;77.90;;;;;;5035905;28;20034;-77
2021/12/27 01:45:41;;;;;;;18.30;11.93;;;7.90;77.90;;;;;;5035729;28;20029;-77
2021/12/27 01:48:08;;;;;;;17.25;11.80;;;7.90;78.00;;;;;;5034358;28;20332;-77
2021/12/27 01:50:36;;;;;;;16.90;11.60;;;7.90;77.90;;;;;;5035382;28;20087;-75
2021/12/27 01:53:02;;;;;;;16.55;11.57;;;7.90;77.90;;;;;;5035688;28;20356;-77
2021/12/27 01:55:28;;;;;;;18.05;12.18;;;7.90;77.90;;;;;;5034061;28;20434;-77
2021/12/27 01:57:54;;;;;;;18.65;11.88;;;7.90;77.90;;;;;;5034005;28;20022;-77
2021/12/27 02:00:19;;;;;;;18.80;12.05;;;7.90;77.90;;;;;;5035017;28;20483;-75
2021/12/27 02:02:45;;;;;;;17.48;11.68;;;7.90;78.00;;;;;;5035141;28;20056;-78
2021/12/27 02:05:13;;;;;;;19.25;12.50;;;7.90;78.10;;;;;;5033789;28;20471;-77
2021/12/27 02:07:38;;;;;;;18.25;11.80;;;7.90;78.10;;;;;;5035156;28;20491;-77
2021/12/27 02:10:04;;;;;;;17.27;11.40;;;7.90;78.20;;;;;;5033992;28;20029;-77
2021/12/27 02:12:31;;;;;;;18.30;12.55;;;7.90;78.20;;;;;;5034025;28;20092;-77
2021/12/27 02:14:58;;;;;;;18.17;12.13;;;7.90;78.20;;;;;;5033874;28;20025;-79
2021/12/27 02:17:24;;;;;;;17.23;11.48;;;7.90;78.30;;;;;;5035283;28;20028;-77
2021/12/27 02:19:51;;;;;;;16.98;11.95;;;7.90;78.30;;;;;;5034823;28;20029;-77
2021/12/27 02:22:18;;;;;;;17.98;12.13;;;7.90;78.30;;;;;;5033644;28;20026;-78
2021/12/27 02:24:44;;;;;;;17.48;12.60;;;7.90;78.50;;;;;;5033463;28;20026;-77
2021/12/27 02:27:13;;;;;;;17.35;11.88;;;7.90;78.40;;;;;;5033091;28;20017;-77
2021/12/27 02:29:39;;;;;;;18.92;12.70;;;7.90;78.40;;;;;;5034952;28;20029;-76
2021/12/27 02:32:05;;;;;;;18.67;11.93;;;7.90;78.50;;;;;;5033474;28;20364;-77
2021/12/27 02:34:31;;;;;;;18.15;12.63;;;7.90;78.40;;;;;;5033170;28;20026;-77
2021/12/27 02:36:57;;;;;;;16.65;11.88;;;7.90;78.60;;;;;;5033555;28;20391;-77
2021/12/27 02:39:22;;;;;;;18.60;12.27;;;7.90;78.60;;;;;;5033442;28;20021;-77
2021/12/27 02:41:48;;;;;;;19.88;12.60;;;7.90;78.60;;;;;;5033300;28;20072;-77
2021/12/27 02:44:13;;;;;;;18.52;12.40;;;7.90;78.60;;;;;;5034488;28;20079;-77
2021/12/27 02:46:39;;;;;;;19.55;13.23;;;7.90;78.60;;;;;;5033143;28;20033;-77
2021/12/27 02:49:05;;;;;;;20.58;13.20;;;7.90;78.80;;;;;;5032485;28;20033;-77
2021/12/27 02:51:31;;;;;;;17.83;13.13;;;7.90;78.90;;;;;;5033052;28;20031;-77
2021/12/27 02:53:56;;;;;;;18.65;12.77;;;7.90;78.90;;;;;;5034133;28;20017;-77
2021/12/27 02:56:23;;;;;;;20.83;13.73;;;7.90;79.00;;;;;;5034300;28;20018;-77
2021/12/27 02:58:49;;;;;;;18.40;12.45;;;7.90;78.90;;;;;;5034196;28;20052;-77
2021/12/27 03:01:19;;;;;;;18.27;13.25;;;7.90;79.00;;;;;;5034026;28;20025;-77
2021/12/27 03:03:45;;;;;;;18.88;12.32;;;7.90;78.90;;;;;;5034284;28;20026;-77
2021/12/27 03:06:11;;;;;;;17.88;12.40;;;7.90;79.00;;;;;;5032960;28;20021;-77
2021/12/27 03:08:38;;;;;;;18.63;12.90;;;7.90;79.00;;;;;;5034099;28;20080;-76
2021/12/27 03:11:05;;;;;;;17.88;12.10;;;7.90;79.50;;;;;;5032610;28;20042;-77
2021/12/27 03:13:33;;;;;;;18.58;12.98;;;7.90;79.00;;;;;;5032348;28;20028;-76
2021/12/27 03:16:05;;;;;;;18.38;12.40;;;7.90;79.10;;;;;;5033918;28;20017;-77
2021/12/27 03:18:32;;;;;;;18.98;12.63;;;7.90;79.10;;;;;;5032639;28;20155;-77
2021/12/27 03:20:58;;;;;;;20.88;13.45;;;7.90;79.00;;;;;;5032417;28;20033;-76
2021/12/27 03:23:24;;;;;;;19.58;13.45;;;7.90;79.00;;;;;;5032201;28;20033;-77
2021/12/27 03:25:50;;;;;;;19.70;13.55;;;7.90;79.00;;;;;;5031829;28;20025;-77
2021/12/27 03:28:16;;;;;;;18.30;12.88;;;7.90;79.20;;;;;;5032475;28;20033;-77
2021/12/27 03:30:42;;;;;;;20.63;13.40;;;7.90;79.10;;;;;;5033674;28;20029;-77
2021/12/27 03:33:08;;;;;;;19.33;13.70;;;7.90;79.10;;;;;;5033616;28;20101;-77
2021/12/27 03:35:36;;;;;;;18.30;12.82;;;7.90;79.10;;;;;;5033211;28;20434;-77
2021/12/27 03:38:05;;;;;;;18.75;12.77;;;7.90;79.20;;;;;;5032412;28;20105;-77
2021/12/27 03:40:34;;;;;;;19.60;13.27;;;7.90;79.30;;;;;;5032136;28;20052;-77
2021/12/27 03:43:00;;;;;;;20.27;13.18;;;7.90;79.30;;;;;;5027614;28;20037;-77
2021/12/27 03:45:32;;;;;;;21.20;13.48;;;7.90;79.30;;;;;;5032037;28;20029;-77
2021/12/27 03:47:59;;;;;;;19.95;13.15;;;7.90;79.40;;;;;;5033359;28;20447;-77
2021/12/27 03:50:27;;;;;;;19.98;13.20;;;7.90;80.00;;;;;;5031888;28;20084;-77
2021/12/27 03:52:54;;;;;;;19.30;13.13;;;7.90;79.30;;;;;;5033295;28;20017;-76
2021/12/27 03:55:21;;;;;;;17.63;11.82;;;7.90;79.30;;;;;;5033033;28;20018;-77
2021/12/27 03:57:54;;;;;;;19.58;12.85;;;7.90;79.40;;;;;;5031881;28;20079;-77
2021/12/27 04:02:51;;;;;;;21.23;13.90;;;7.90;79.40;;;;;;5033457;28;20099;-77
2021/12/27 04:05:17;;;;;;;21.08;13.20;;;7.90;79.30;;;;;;5031622;28;20048;-77
2021/12/27 04:07:44;;;;;;;19.52;13.30;;;7.90;79.30;;;;;;5031882;28;20766;-77
2021/12/27 04:10:11;;;;;;;21.42;13.65;;;7.90;79.20;;;;;;5032785;28;20033;-77
2021/12/27 04:12:38;;;;;;;19.27;13.32;;;7.90;79.20;;;;;;5031615;28;20060;-77
2021/12/27 04:15:07;;;;;;;19.08;13.05;;;7.90;79.20;;;;;;5032940;28;20032;-76
2021/12/27 04:17:32;;;;;;;19.48;12.75;;;7.90;79.20;;;;;;5032967;28;20021;-77
2021/12/27 04:19:58;;;;;;;18.65;12.98;;;7.90;79.20;;;;;;5031619;28;20037;-77
2021/12/27 04:22:24;;;;;;;21.20;13.43;;;7.90;79.20;;;;;;5032856;28;20029;-77
2021/12/27 04:24:49;;;;;;;19.17;13.45;;;7.90;79.30;;;;;;5031317;28;20100;-77
2021/12/27 04:27:15;;;;;;;19.60;13.65;;;7.90;79.20;;;;;;5033099;28;20021;-77
2021/12/27 04:29:40;;;;;;;18.83;12.93;;;7.90;79.20;;;;;;5031536;28;20116;-77
2021/12/27 04:32:07;;;;;;;20.15;13.13;;;7.90;79.30;;;;;;5032536;28;20033;-77
2021/12/27 04:34:33;;;;;;;17.75;12.35;;;7.90;79.30;;;;;;5032713;28;20025;-77
2021/12/27 04:36:58;;;;;;;18.70;13.27;;;7.90;79.20;;;;;;5031463;28;20398;-77
2021/12/27 04:39:24;;;;;;;19.08;13.02;;;7.90;79.20;;;;;;5031225;28;20032;-77
2021/12/27 04:41:50;;;;;;;19.08;13.02;;;7.90;79.30;;;;;;5031245;28;20471;-77
2021/12/27 04:44:16;;;;;;;19.52;12.98;;;7.90;79.30;;;;;;5031245;28;20078;-77
2021/12/27 04:46:42;;;;;;;19.48;13.20;;;7.90;79.30;;;;;;5031344;28;20034;-77
2021/12/27 04:49:07;;;;;;;19.73;13.57;;;7.90;79.30;;;;;;5031329;28;20113;-77
2021/12/27 04:51:33;;;;;;;20.58;13.68;;;7.90;79.40;;;;;;5032254;28;20033;-77
2021/12/27 04:53:59;;;;;;;20.48;12.85;;;7.90;79.50;;;;;;5031083;28;20521;-77
2021/12/27 04:56:24;;;;;;;19.42;13.80;;;7.90;79.40;;;;;;5031237;28;20521;-77
2021/12/27 04:58:50;;;;;;;19.15;12.88;;;7.90;79.50;;;;;;5031302;28;20029;-77
2021/12/27 05:01:16;;;;;;;18.63;12.85;;;7.90;79.50;;;;;;5031134;28;20030;-77
2021/12/27 05:03:42;;;;;;;19.05;13.18;;;7.90;79.60;;;;;;5030965;28;20487;-77
2021/12/27 05:06:08;;;;;;;19.25;12.95;;;7.90;79.50;;;;;;5031067;28;20029;-77
2021/12/27 05:08:34;;;;;;;20.15;13.07;;;7.90;79.60;;;;;;5030917;28;20025;-77
2021/12/27 05:11:00;;;;;;;17.58;12.35;;;7.90;79.50;;;;;;5032186;28;20029;-77
2021/12/27 05:13:25;;;;;;;18.00;12.93;;;7.90;79.60;;;;;;5036022;28;20096;-77
2021/12/27 05:15:51;;;;;;;19.90;13.13;;;7.90;79.60;;;;;;5036227;28;20058;-77
2021/12/27 05:18:17;;;;;;;18.33;12.88;;;7.90;80.20;;;;;;5034947;28;20398;-77
2021/12/27 05:20:43;;;;;;;20.60;13.30;;;7.90;79.80;;;;;;5037219;28;20033;-75
2021/12/27 05:23:09;;;;;;;18.58;12.45;;;7.90;79.80;;;;;;5035996;28;20033;-77
2021/12/27 05:25:35;;;;;;;19.30;12.95;;;7.90;79.80;;;;;;5035938;28;20044;-76
2021/12/27 05:28:00;;;;;;;21.38;13.48;;;7.90;79.90;;;;;;5035279;28;20083;-76
2021/12/27 05:30:26;;;;;;;17.98;12.57;;;7.90;79.80;;;;;;5036220;28;20475;-78
2021/12/27 05:32:51;;;;;;;18.90;12.52;;;7.90;79.90;;;;;;5036092;28;20092;-78
2021/12/27 05:35:17;;;;;;;20.02;13.25;;;7.90;80.00;;;;;;5035654;28;20410;-77
2021/12/27 05:37:45;;;;;;;20.27;13.35;;;7.90;80.00;;;;;;5035868;28;20107;-77
2021/12/27 05:40:17;;;;;;;18.98;13.02;;;7.90;80.00;;;;;;5034512;28;20061;-77
2021/12/27 05:42:43;;;;;;;19.55;13.82;;;7.90;80.10;;;;;;5031058;28;20021;-77
2021/12/27 05:45:08;;;;;;;18.80;12.35;;;7.90;80.20;;;;;;5018268;28;20018;-78
2021/12/27 05:47:35;;;;;;;19.50;13.82;;;7.90;80.20;;;;;;5055542;28;20104;-78
2021/12/27 05:50:00;;;;;;;18.73;12.48;;;7.90;80.30;;;;;;5055592;28;20028;-77
2021/12/27 05:52:26;;;;;;;19.30;12.85;;;7.90;80.30;;;;;;5053120;28;20021;-77
2021/12/27 05:54:51;;;;;;;19.15;13.20;;;7.90;80.40;;;;;;5034113;28;20471;-78
2021/12/27 05:57:17;;;;;;;20.45;13.75;;;7.90;80.40;;;;;;5034330;28;20033;-78
2021/12/27 05:59:43;;;;;;;19.48;12.88;;;7.90;80.40;;;;;;5035392;28;20441;-78
2021/12/27 06:02:08;;;;;;;19.30;12.95;;;7.90;80.40;;;;;;5035409;28;20059;-77
2021/12/27 06:04:34;;;;;;;20.33;13.38;;;7.90;80.40;;;;;;5033873;28;20033;-77
2021/12/27 06:06:59;;;;;;;18.13;12.75;;;7.90;80.40;;;;;;5035321;28;20103;-78
2021/12/27 06:09:25;;;;;;;18.63;12.65;;;7.90;81.00;;;;;;5035212;28;20064;-78
2021/12/27 06:11:50;;;;;;;20.10;13.73;;;7.90;80.40;;;;;;5033855;28;20026;-77
2021/12/27 06:14:16;;;;;;;18.42;13.15;;;7.90;80.40;;;;;;5035000;28;20037;-77
2021/12/27 06:16:41;;;;;;;21.30;13.38;;;7.90;80.30;;;;;;5035035;28;20032;-77
2021/12/27 06:19:07;;;;;;;18.88;13.07;;;7.90;80.40;;;;;;5033975;28;20052;-78
2021/12/27 06:21:33;;;;;;;20.42;13.95;;;7.90;80.40;;;;;;5034662;28;20040;-78
2021/12/27 06:24:00;;;;;;;18.40;12.38;;;7.90;80.50;;;;;;5032005;28;20044;-78
2021/12/27 06:26:26;;;;;;;19.90;13.20;;;7.90;80.50;;;;;;5033319;28;20025;-77
2021/12/27 06:28:51;;;;;;;19.35;13.10;;;7.90;80.50;;;;;;5032150;28;20033;-78
2021/12/27 06:31:17;;;;;;;20.65;14.40;;;7.90;80.50;;;;;;5033839;28;20394;-78
2021/12/27 06:33:42;;;;;;;20.55;14.10;;;7.90;80.50;;;;;;5034246;28;20084;-78
2021/12/27 06:36:08;;;;;;;21.83;14.15;;;7.90;80.50;;;;;;5033458;28;20032;-76
2021/12/27 06:38:34;;;;;;;22.55;15.50;;;7.90;80.60;;;;;;5035375;28;20498;-78
2021/12/27 06:41:00;;;;;;;23.55;15.05;;;7.90;80.60;;;;;;5034153;28;20499;-77
2021/12/27 06:43:28;;;;;;;20.48;14.52;;;7.90;80.70;;;;;;5035270;28;20026;-78
2021/12/27 06:45:53;;;;;;;21.70;14.30;;;7.90;80.70;;;;;;5035565;28;20029;-78
2021/12/27 06:48:19;;;;;;;20.23;14.23;;;7.90;80.60;;;;;;5033394;28;20569;-78
2021/12/27 06:50:44;;;;;;;22.75;15.45;;;7.90;80.60;;;;;;5034441;28;20041;-78
2021/12/27 06:53:10;;;;;;;19.52;14.13;;;7.90;80.70;;;;;;5035461;28;20033;-77
2021/12/27 06:55:35;;;;;;;20.02;14.73;;;7.90;80.70;;;;;;5034717;28;20029;-78
2021/12/27 06:58:01;;;;;;;21.52;15.27;;;7.80;80.70;;;;;;5034751;28;20155;-79
2021/12/27 07:00:26;;;;;;;20.92;14.43;;;7.90;80.70;;;;;;5033340;28;20666;-76
2021/12/27 07:02:52;;;;;;;21.75;15.45;;;7.90;80.70;;;;;;5033017;28;20041;-78
2021/12/27 07:05:18;;;;;;;22.95;14.57;;;7.90;80.70;;;;;;5034758;28;20021;-77
2021/12/27 07:07:44;;;;;;;21.65;15.68;;;7.90;80.70;;;;;;5032810;28;20029;-78
2021/12/27 07:10:11;;;;;;;20.75;15.00;;;7.90;80.80;;;;;;5033827;28;20029;-78
2021/12/27 07:12:37;;;;;;;23.65;14.77;;;7.90;80.80;;;;;;5033998;28;20498;-78
2021/12/27 07:15:02;;;;;;;22.70;15.50;;;7.90;81.00;;;;;;5032064;28;20128;-78
2021/12/27 07:17:28;;;;;;;20.73;14.52;;;7.80;81.00;;;;;;5033861;28;20029;-78
2021/12/27 07:19:53;;;;;;;21.90;15.52;;;7.90;81.00;;;;;;5033459;28;20413;-78
2021/12/27 07:22:19;;;;;;;22.45;14.32;;;7.90;80.90;;;;;;5032992;28;20482;-78
2021/12/27 07:24:45;;;;;;;22.67;15.45;;;7.90;81.00;;;;;;5033614;28;20030;-78
2021/12/27 07:27:11;;;;;;;22.83;15.90;;;7.90;81.00;;;;;;5031235;28;20083;-77
2021/12/27 07:29:37;;;;;;;23.45;15.15;;;7.90;81.00;;;;;;5032052;28;20025;-78
2021/12/27 07:32:03;;;;;;;21.88;14.82;;;7.80;81.00;;;;;;5036661;28;20077;-78
2021/12/27 07:34:29;;;;;;;21.40;14.98;;;7.80;81.00;;;;;;5032594;28;20021;-78
2021/12/27 07:36:56;;;;;;;22.17;14.98;;;7.90;81.00;;;;;;5032931;28;20029;-78
2021/12/27 07:39:23;;;;;;;24.00;15.30;;;7.90;80.90;;;;;;5030920;28;20093;-78
2021/12/27 07:41:49;;;;;;;29.10;15.40;;;7.90;80.90;;;;;;5031024;28;20079;-83
2021/12/27 07:44:15;;;;;;;26.02;15.30;;;7.90;80.90;;;;;;5031717;28;20021;-78
2021/12/27 07:46:42;;;;;;;23.73;14.68;;;7.90;80.90;;;;;;5032985;28;20075;-77
2021/12/27 07:49:11;;;;;;;22.63;14.95;;;7.90;81.00;;;;;;5030772;28;20045;-78
2021/12/27 07:51:37;;;;;;;23.48;15.48;;;7.90;81.00;;;;;;5026940;28;20049;-77
2021/12/27 07:54:04;;;;;;;23.52;15.15;;;7.90;81.10;;;;;;5019995;28;20064;-77
2021/12/27 07:56:29;;;;;;;25.30;15.10;;;7.90;81.20;;;;;;5010796;28;20050;-77
2021/12/27 07:58:55;;;;;;;22.58;14.85;;;8.00;81.20;;;;;;5010970;28;20546;-77
2021/12/27 08:01:21;;;;;;;22.58;14.35;;;7.90;81.10;;;;;;5012048;28;20034;-78
2021/12/27 08:03:47;;;;;;;20.60;15.13;;;7.70;81.00;;;;;;5011685;28;20026;-78
2021/12/27 08:06:12;;;;;;;20.88;14.75;;;7.90;81.10;;;;;;5013769;28;20487;-79
2021/12/27 08:08:38;;;;;;;23.58;15.68;;;7.90;81.20;;;;;;5012559;28;20610;-79
2021/12/27 08:11:03;;;;;;;22.85;14.90;;;7.90;81.20;;;;;;5026936;28;20033;-79
2021/12/27 08:13:30;;;;;;;20.25;14.40;;;7.90;81.20;;;;;;5031240;28;20392;-78
2021/12/27 08:15:56;;;;;;;21.02;14.82;;;7.90;81.20;;;;;;5031217;28;20036;-79
2021/12/27 08:18:21;;;;;;;20.08;14.82;;;7.90;81.30;;;;;;5030945;28;20112;-78
2021/12/27 08:20:48;;;;;;;22.98;14.98;;;7.80;81.20;;;;;;5030513;28;20045;-77
2021/12/27 08:23:14;;;;;;;22.45;15.77;;;7.90;81.30;;;;;;5030343;28;20634;-78
2021/12/27 08:25:39;;;;;;;21.75;15.25;;;7.80;81.30;;;;;;5031273;28;20029;-79
2021/12/27 08:28:05;;;;;;;23.75;16.00;;;7.90;81.40;;;;;;5027754;28;20486;-79
2021/12/27 08:30:31;;;;;;;21.98;14.32;;;7.80;81.30;;;;;;5029814;28;20032;-79
2021/12/27 08:32:59;;;;;;;22.38;15.30;;;7.90;81.40;;;;;;5029149;28;20017;-78
2021/12/27 08:35:25;;;;;;;20.85;15.20;;;7.90;81.40;;;;;;5030734;28;20021;-78
2021/12/27 08:37:51;;;;;;;22.38;15.68;;;7.90;81.40;;;;;;5032177;28;20024;-78
2021/12/27 08:40:16;;;;;;;21.70;14.98;;;7.90;81.40;;;;;;5031510;28;20029;-78
2021/12/27 08:42:42;;;;;;;20.60;14.65;;;7.90;81.40;;;;;;5032903;28;20025;-79
2021/12/27 08:45:08;;;;;;;21.75;15.73;;;7.80;81.40;;;;;;5031026;28;20394;-79
2021/12/27 08:47:34;;;;;;;20.38;14.23;;;7.80;81.40;;;;;;5030665;28;20491;-78
2021/12/27 08:50:00;;;;;;;22.17;14.80;;;7.80;81.40;;;;;;5032517;28;20109;-79
2021/12/27 08:52:27;;;;;;;21.02;13.95;;;7.90;81.50;;;;;;5031876;28;20061;-78
2021/12/27 08:54:52;;;;;;;22.00;14.57;;;7.80;81.50;;;;;;5028797;28;20375;-78
2021/12/27 08:57:18;;;;;;;20.60;14.55;;;7.80;81.50;;;;;;5031795;28;20108;-79
2021/12/27 08:59:43;;;;;;;20.40;14.25;;;7.80;81.60;;;;;;5031843;28;20040;-79
2021/12/27 09:02:10;;;;;;;21.65;14.60;;;7.80;81.50;;;;;;5031113;28;20458;-78
2021/12/27 09:04:36;;;;;;;22.38;15.43;;;7.80;81.50;;;;;;5031137;28;20457;-78
2021/12/27 09:07:02;;;;;;;20.52;14.27;;;7.80;81.50;;;;;;5030092;28;20116;-77
2021/12/27 09:09:28;;;;;;;20.05;14.27;;;7.80;81.60;;;;;;5030660;28;20030;-79
2021/12/27 09:11:53;;;;;;;20.25;14.18;;;7.80;81.70;;;;;;5031975;28;20040;-78
2021/12/27 09:14:19;;;;;;;21.38;15.00;;;7.90;81.70;;;;;;5030936;28;20025;-77
2021/12/27 09:16:45;;;;;;;20.13;14.23;;;7.90;81.70;;;;;;5030437;28;20021;-79
2021/12/27 09:19:11;;;;;;;20.00;14.40;;;7.80;81.70;;;;;;5032067;28;20105;-77
2021/12/27 09:21:37;;;;;;;19.88;14.07;;;7.80;81.70;;;;;;5030421;28;20072;-79
2021/12/27 09:24:03;;;;;;;19.63;13.77;;;7.80;81.80;;;;;;5031464;28;20478;-78
2021/12/27 09:26:29;;;;;;;20.88;14.70;;;7.90;81.80;;;;;;5031286;28;20038;-77
2021/12/27 09:28:55;;;;;;;21.25;15.00;;;7.80;81.80;;;;;;5030302;28;20025;-78
2021/12/27 09:31:21;;;;;;;22.20;15.00;;;7.90;81.80;;;;;;5031091;28;20395;-76
2021/12/27 09:33:46;;;;;;;20.58;14.40;;;7.80;81.80;;;;;;5029969;28;20028;-78
2021/12/27 09:36:12;;;;;;;20.23;14.18;;;7.80;82.30;;;;;;5030932;28;20037;-77
2021/12/27 09:38:38;;;;;;;19.88;14.13;;;7.80;82.40;;;;;;5031366;28;20747;-78
2021/12/27 09:41:03;;;;;;;19.95;14.80;;;7.80;81.80;;;;;;5031010;28;20542;-77
2021/12/27 09:43:30;;;;;;;19.63;13.88;;;7.90;81.90;;;;;;5029580;28;20682;-78
2021/12/27 09:45:55;;;;;;;20.88;14.85;;;7.90;82.00;;;;;;5029823;28;20025;-77
2021/12/27 09:48:21;;;;;;;20.75;14.50;;;7.80;81.90;;;;;;5029338;28;20557;-78
2021/12/27 09:50:54;;;;;;;20.73;14.45;;;7.90;82.00;;;;;;5029726;28;20021;-78
2021/12/27 09:53:19;;;;;;;21.25;14.73;;;7.80;81.90;;;;;;5029347;28;20030;-78
2021/12/27 09:55:45;;;;;;;19.20;13.65;;;7.80;82.00;;;;;;5030440;28;20024;-78
2021/12/27 09:58:11;;;;;;;19.60;13.60;;;7.80;81.90;;;;;;5033833;28;20033;-79
2021/12/27 10:00:37;;;;;;;19.30;14.38;;;7.80;81.90;;;;;;5034043;28;20029;-79
2021/12/27 10:03:05;;;;;;;19.15;14.20;;;7.80;81.80;;;;;;5034554;28;20026;-79
2021/12/27 10:05:32;;;;;;;18.73;13.25;;;7.90;81.90;;;;;;5033302;28;20025;-78
2021/12/27 10:07:57;;;;;;;19.98;14.02;;;7.90;81.90;;;;;;5033590;28;20029;-78
2021/12/27 10:10:23;;;;;;;19.25;13.43;;;7.90;81.90;;;;;;5033339;28;20217;-78
2021/12/27 10:12:49;;;;;;;23.63;14.02;;;7.90;81.90;;;;;;5032880;28;20021;-76
2021/12/27 10:15:19;;;;;;;22.17;13.43;;;7.90;82.00;;;;;;5034618;28;20026;-78
2021/12/27 10:17:47;;;;;;;20.63;13.73;;;7.90;82.00;;;;;;5032840;28;20120;-78
2021/12/27 10:20:22;;;;;;;19.15;13.52;;;7.90;82.10;;;;;;5034318;28;20065;-79
2021/12/27 10:22:51;;;;;;;19.02;13.80;;;7.90;82.20;;;;;;5034978;28;20045;-79
2021/12/27 10:25:22;;;;;;;20.80;13.50;;;7.90;82.30;;;;;;5033851;28;20089;-78
2021/12/27 10:27:50;;;;;;;22.00;14.90;;;7.90;82.40;;;;;;5033651;28;20025;-78
2021/12/27 10:30:21;;;;;;;21.40;15.50;;;7.90;82.40;;;;;;5032858;28;20026;-78
2021/12/27 10:33:01;;;;;;;20.60;14.37;;;7.90;82.50;;;;;;5034688;28;20361;-78
2021/12/27 10:35:34;;;;;;;20.35;15.18;;;7.90;82.50;;;;;;5037040;28;20355;-78
2021/12/27 10:38:28;;;;;;;22.38;15.50;;;7.90;82.50;;;;;;5034787;28;20021;-79
2021/12/27 10:41:11;;;;;;;19.63;14.18;;;7.90;82.50;;;;;;5031179;28;20057;-78
2021/12/27 10:43:45;;;;;;;21.48;14.15;;;7.90;82.50;;;;;;5031947;28;20074;-79
2021/12/27 10:46:17;;;;;;;21.73;14.00;;;7.90;82.10;;;;;;5031589;28;20122;-79
2021/12/27 10:48:59;;;;;;;22.20;14.18;;;7.90;81.90;;;;;;5031961;28;20514;-78
2021/12/27 10:51:27;;;;;;;19.17;13.63;;;7.80;82.00;;;;;;5031410;28;20034;-77
2021/12/27 10:53:55;;;;;;;19.42;14.40;;;7.90;82.10;;;;;;5029550;28;20021;-78
2021/12/27 10:56:23;;;;;;;20.75;14.30;;;7.90;82.20;;;;;;5031142;28;20025;-78
2021/12/27 10:58:50;;;;;;;18.73;13.63;;;7.90;82.30;;;;;;5030028;28;20021;-79
2021/12/27 11:01:20;;;;;;;20.65;14.30;;;7.90;82.30;;;;;;5031395;28;20032;-79
2021/12/27 11:03:51;;;;;;;21.38;14.50;;;7.80;82.20;;;;;;5030090;28;20032;-79
2021/12/27 11:06:26;;;;;;;20.47;14.53;;;7.90;82.30;;;;;;5035800;28;20021;-79
2021/12/27 11:08:52;;;;;;;20.13;13.82;;;7.90;82.30;;;;;;5035103;28;20653;-79
2021/12/27 11:11:20;;;;;;;19.10;13.93;;;7.90;82.30;;;;;;5035376;28;20026;-79
2021/12/27 11:13:48;;;;;;;19.17;13.77;;;7.90;82.30;;;;;;5036948;28;20022;-80
2021/12/27 11:16:15;;;;;;;19.27;13.65;;;7.90;82.30;;;;;;5035301;28;20021;-80
2021/12/27 11:18:41;;;;;;;19.77;13.48;;;7.90;82.30;;;;;;5036208;28;20076;-79
2021/12/27 11:21:18;;;;;;;18.65;13.13;;;7.90;82.30;;;;;;5067547;22;20057;-77
2021/12/27 11:23:48;;;;;;;18.35;12.93;;;7.90;82.30;;;;;;5053176;28;20270;-78
2021/12/27 11:26:20;;;;;;;17.88;13.35;;;7.90;82.20;;;;;;5037405;28;20112;-76
2021/12/27 11:28:46;;;;;;;19.05;13.75;;;7.90;82.20;;;;;;5037243;28;20074;-80
2021/12/27 11:31:24;;;;;;;18.20;13.90;;;7.90;82.20;;;;;;5025294;28;20378;-76
2021/12/27 11:34:01;;;;;;;16.75;11.98;;;7.90;82.30;;;;;;5035247;28;20037;-77
2021/12/27 11:36:37;;;;;;;18.70;12.75;;;7.90;82.20;;;;;;5017514;28;20052;-76
2021/12/27 11:39:26;;;;;;;18.17;12.65;;;7.90;82.30;;;;;;5017510;28;20025;-76
2021/12/27 11:42:05;;;;;;;18.80;13.23;;;7.90;82.20;;;;;;5018595;28;20079;-77
2021/12/27 11:44:35;;;;;;;17.33;13.32;;;7.90;82.20;;;;;;5017003;28;20124;-76
2021/12/27 11:47:01;;;;;;;19.98;12.55;;;7.90;82.20;;;;;;5017510;28;20033;-76
2021/12/27 11:49:53;;;;;;;17.67;12.80;;;7.90;82.20;;;;;;5017539;28;20029;-76
2021/12/27 11:52:23;;;;;;;18.88;12.65;;;7.90;82.10;;;;;;5033768;28;20457;-76
2021/12/27 11:54:54;;;;;;;17.45;12.43;;;8.00;82.20;;;;;;5015982;28;20021;-77
2021/12/27 11:57:45;;;;;;;18.58;12.20;;;8.00;82.20;;;;;;5016238;28;20021;-77
2021/12/27 12:00:28;;;;;;;15.40;11.77;;;7.90;82.10;;;;;;5017235;28;20026;-76
2021/12/27 12:02:56;;;;;;;17.52;12.68;;;7.90;82.10;;;;;;5016865;28;20024;-78
2021/12/27 12:05:39;;;;;;;18.85;12.45;;;8.00;82.10;;;;;;5016441;28;20487;-76
2021/12/27 12:08:07;;;;;;;16.52;11.45;;;8.00;82.10;;;;;;5017136;28;20022;-76
2021/12/27 12:10:34;;;;;;;17.13;11.75;;;8.00;82.10;;;;;;5016094;28;20401;-77
2021/12/27 12:13:26;;;;;;;16.63;11.80;;;8.00;82.20;;;;;;5033636;28;20029;-77
2021/12/27 12:16:03;;;;;;;17.05;11.68;;;8.00;82.10;;;;;;5016136;28;20152;-77
2021/12/27 12:18:30;;;;;;;15.27;11.52;;;8.00;82.20;;;;;;5033706;28;20099;-77
2021/12/27 12:20:57;;;;;;;17.00;11.95;;;8.00;82.20;;;;;;5015375;28;20475;-77
2021/12/27 12:23:23;;;;;;;16.20;11.82;;;8.00;82.20;;;;;;5011709;28;20108;-77
2021/12/27 12:25:57;;;;;;;16.25;11.98;;;7.90;82.20;;;;;;5013637;28;20108;-76
2021/12/27 12:28:23;;;;;;;17.20;11.80;;;8.00;82.30;;;;;;4995994;28;20431;-78
2021/12/27 12:30:51;;;;;;;15.50;11.43;;;8.00;82.30;;;;;;4995910;28;20150;-77
2021/12/27 12:33:22;;;;;;;15.93;11.70;;;8.00;82.40;;;;;;5013403;28;20025;-76
2021/12/27 12:36:00;;;;;;;16.90;11.48;;;8.00;82.40;;;;;;4996122;28;20018;-78
2021/12/27 12:38:39;;;;;;;16.42;11.57;;;8.00;82.40;;;;;;4995795;28;20468;-78
2021/12/27 12:41:12;;;;;;;16.75;11.68;;;8.00;82.40;;;;;;4995589;28;20439;-77